Airfield :
LOGIN :

Register | Disclaimer

   EN    FR    IT 

 










Legend :    VFR   Marginal VFR   IFR   Intensive IFR   Very Intensive IFR
Visi :
Ceiling :
>= 8 km
>= 3000ft
5 to 8 km
1000 to 3000 ft
1500m to 5 km
500 to 1000 ft
800 to 1500m
200 to 500 ft
< 800m
< 200 ft
Symbols :   Thunderstorms  Fog  Heavy snow  Heavy precipitations  Wind > 20 kt
SIGMETs :     Misc.  Thunderstorms  Icing  Turbulence  Mountain Waves  Volcanic Ashes






- Airport Elevation : 1416 ft
- IATA code : ZRH


LSZH - Zurich

CURRENT METAR :
  • 300250Z AUTO 36002KT 6000 -DZ FEW017 BKN021 BKN026 05/05 Q1019 TEMPO 4000

EXPIRED METARs :
  • 300220Z AUTO 35002KT 5000 BR FEW017 BKN024 05/05 Q1019 TEMPO 4000
  • 300150Z AUTO 32002KT 6000 -DZ FEW007 BKN049 05/04 Q1019 NOSIG
  • 300120Z AUTO 31003KT 9000 -DZRA FEW021 SCT024 BKN029 05/05 Q1019 NOSIG

TAF TAF LSZH
Valid from the 30 at 03:00 until the 01 at 09:00 UTC


300225Z 3003/0109 VRB02KT 6000 -DZ FEW007 SCT010 BKN030 TX06/3013Z TN04/3023Z TN04/0104Z
TEMPO 3003/3010 4000 DZ SCT007 BKN012
BECMG 3008/3010 04007KT
PROB40 3020/0107 VRB02KT BKN014
ATIS : +41 43 816 2295 (DEP) +41 43 816 2294 (ARR)



MET'MAP, your aeronautical weather chart ! - Copyright ORBIFLY December 2007 - Disclaimer

ORBIFLY MET'MAP TEAM :

Programming & Development : Alexandra Zaïnal
Original concept : Baudouin d'Aumeries
Technical & hardware support : Manuel Goepfert
Assistance : Marc-Olivier Méhu




SOURCES & CREDITS :

   NOAA